Time;durP1;ratioP1;P1;durP2;ratioP2;P2;SDS_P1;SDS_P2;PMS_P1;PMS_P2;Temp;Humidity;BMP_temperature;BMP_pressure;BME280_temperature;BME280_humidity;BME280_pressure;Samples;Min_cycle;Max_cycle;Signal;HPM_P1;HPM_P2
2022/02/27 00:02:24;;;;;;;22.03;14.10;;;;;;;5.11;74.52;95323.94;5073702;28;20451;-85
2022/02/27 00:04:51;;;;;;;27.00;13.83;;;;;;;5.23;74.43;95323.25;5073743;28;20448;-85
2022/02/27 00:07:18;;;;;;;22.00;13.83;;;;;;;5.26;73.90;95310.91;5073784;28;20617;-85
2022/02/27 00:09:45;;;;;;;20.53;13.67;;;;;;;5.37;72.96;95305.06;5073613;28;20463;-86
2022/02/27 00:12:12;;;;;;;16.37;10.70;;;;;;;5.12;73.81;95318.63;5073332;28;20449;-85
2022/02/27 00:14:40;;;;;;;19.10;12.87;;;;;;;5.26;73.93;95307.47;5073201;28;20441;-84
2022/02/27 00:17:07;;;;;;;22.87;13.87;;;;;;;5.26;74.20;95307.47;5073421;28;20449;-84
2022/02/27 00:19:34;;;;;;;18.53;13.60;;;;;;;5.03;74.24;95316.56;5073583;28;20895;-86
2022/02/27 00:22:01;;;;;;;28.60;13.13;;;;;;;5.04;74.43;95317.41;5073304;28;20445;-86
2022/02/27 00:24:29;;;;;;;25.07;13.97;;;;;;;5.03;74.46;95311.38;5073157;28;20459;-85
2022/02/27 00:26:57;;;;;;;25.10;14.17;;;;;;;5.03;74.60;95305.31;5073193;28;20441;-86
2022/02/27 00:29:24;;;;;;;21.97;11.80;;;;;;;4.95;74.94;95288.41;5073533;28;20455;-85
2022/02/27 00:31:53;;;;;;;15.60;9.83;;;;;;;4.89;74.35;95286.13;5073360;28;20452;-86
2022/02/27 00:34:20;;;;;;;21.30;13.53;;;;;;;4.81;75.75;95282.28;5073197;28;20449;-85
2022/02/27 00:36:50;;;;;;;22.17;13.60;;;;;;;4.85;75.64;95282.03;5073296;28;20433;-83
2022/02/27 00:39:18;;;;;;;20.90;13.80;;;;;;;4.87;75.19;95276.72;5072945;28;20448;-85
2022/02/27 00:41:45;;;;;;;24.90;13.63;;;;;;;4.93;74.94;95266.00;5073054;28;20481;-84
2022/02/27 00:44:12;;;;;;;18.20;11.37;;;;;;;4.76;75.75;95271.31;5072867;28;20445;-84
2022/02/27 00:46:39;;;;;;;38.03;13.97;;;;;;;4.80;75.22;95272.81;5072692;28;20441;-85
2022/02/27 00:49:07;;;;;;;18.70;12.47;;;;;;;4.72;75.25;95265.44;5072944;28;20433;-85
2022/02/27 00:51:34;;;;;;;20.40;12.60;;;;;;;4.79;75.04;95263.34;5072774;28;20459;-84
2022/02/27 00:54:01;;;;;;;22.30;14.00;;;;;;;4.72;75.82;95251.63;5072740;28;20454;-84
2022/02/27 00:56:28;;;;;;;14.33;10.53;;;;;;;4.65;75.76;95256.31;5072563;28;20571;-86
2022/02/27 00:58:55;;;;;;;21.30;10.10;;;;;;;4.54;75.90;95243.06;5073072;28;20448;-86
2022/02/27 01:01:22;;;;;;;16.63;12.30;;;;;;;4.61;76.27;95254.78;5072535;28;20485;-84
2022/02/27 01:03:49;;;;;;;18.43;12.40;;;;;;;4.66;75.93;95255.41;5072429;28;20461;-83
2022/02/27 01:06:17;;;;;;;19.23;11.00;;;;;;;4.63;76.17;95263.38;5072265;28;20455;-87
2022/02/27 01:08:44;;;;;;;25.57;14.87;;;;;;;4.66;76.05;95255.41;5072567;28;20457;-86
2022/02/27 01:11:11;;;;;;;18.33;12.90;;;;;;;4.57;76.63;95256.72;5073023;28;20436;-90
2022/02/27 01:13:39;;;;;;;17.33;12.53;;;;;;;4.57;76.59;95274.91;5075821;28;20456;-81
2022/02/27 01:16:06;;;;;;;18.50;13.30;;;;;;;4.57;76.86;95272.31;5074608;28;20553;-84
2022/02/27 01:18:33;;;;;;;23.73;13.87;;;;;;;4.69;76.85;95275.19;5072960;28;20472;-85
2022/02/27 01:21:00;;;;;;;26.27;16.80;;;;;;;4.83;76.11;95273.47;5072182;28;21157;-84
2022/02/27 01:23:29;;;;;;;23.70;15.80;;;;;;;4.73;76.22;95274.09;5072564;28;20494;-84
2022/02/27 01:25:56;;;;;;;26.60;16.43;;;;;;;4.66;76.69;95251.03;5072235;28;20551;-84
2022/02/27 01:28:23;;;;;;;29.33;16.30;;;;;;;4.73;76.06;95264.53;5071576;28;20519;-85
2022/02/27 01:30:50;;;;;;;16.03;11.63;;;;;;;4.59;76.39;95267.88;5072328;28;20527;-84
2022/02/27 01:33:17;;;;;;;22.83;13.07;;;;;;;4.59;76.74;95252.28;5072220;28;20540;-84
2022/02/27 01:35:44;;;;;;;23.63;14.83;;;;;;;4.68;76.04;95261.34;5072085;28;20455;-85
2022/02/27 01:38:11;;;;;;;26.83;14.43;;;;;;;4.65;76.64;95256.31;5053562;28;20445;-85
2022/02/27 01:40:39;;;;;;;35.40;14.70;;;;;;;4.68;76.71;95245.75;5072273;28;20920;-85
2022/02/27 01:43:06;;;;;;;24.13;13.00;;;;;;;4.63;76.11;95237.38;5072366;28;20588;-84
2022/02/27 01:45:33;;;;;;;29.00;13.03;;;;;;;4.62;76.79;95220.06;5072025;28;20441;-84
2022/02/27 01:48:00;;;;;;;20.50;13.20;;;;;;;4.55;76.35;95237.78;5071946;28;20931;-84
2022/02/27 01:50:27;;;;;;;26.30;14.57;;;;;;;4.59;77.02;95241.03;5072307;28;20437;-84
2022/02/27 01:52:54;;;;;;;20.33;12.70;;;;;;;4.54;77.00;95232.69;5072083;28;20452;-84
2022/02/27 01:55:21;;;;;;;22.53;11.90;;;;;;;4.42;77.20;95243.75;5071927;28;20436;-84
2022/02/27 01:57:49;;;;;;;19.40;12.63;;;;;;;4.41;77.82;95237.72;5072267;28;20451;-84
2022/02/27 02:00:17;;;;;;;23.53;12.63;;;;;;;4.53;77.68;95228.41;5071726;28;20536;-83
2022/02/27 02:02:45;;;;;;;22.20;12.67;;;;;;;4.53;76.71;95220.59;5069858;28;20439;-84
2022/02/27 02:05:12;;;;;;;20.70;13.43;;;;;;;4.66;76.17;95217.25;5071891;28;20452;-84
2022/02/27 02:07:41;;;;;;;18.57;14.47;;;;;;;4.65;75.81;95231.16;5071663;28;20433;-84
2022/02/27 02:10:09;;;;;;;25.03;13.93;;;;;;;4.76;75.47;95246.16;5069548;28;20445;-82
2022/02/27 02:12:36;;;;;;;20.73;11.90;;;;;;;4.76;75.51;95253.09;5071835;28;20433;-85
2022/02/27 02:15:05;;;;;;;24.03;14.00;;;;;;;4.83;75.59;95263.06;5072228;28;20475;-85
2022/02/27 02:17:32;;;;;;;20.63;14.00;;;;;;;4.89;74.87;95249.72;5071591;28;20475;-84
2022/02/27 02:20:01;;;;;;;31.97;11.40;;;;;;;4.45;75.57;95248.78;5071973;28;20449;-86
2022/02/27 02:22:28;;;;;;;15.50;12.67;;;;;;;4.55;75.69;95230.00;5071812;28;20476;-86
2022/02/27 02:24:55;;;;;;;24.57;12.57;;;;;;;4.61;75.31;95223.59;5071892;28;20951;-85
2022/02/27 02:27:22;;;;;;;26.87;13.00;;;;;;;4.64;75.21;95213.91;5072108;28;20464;-85
2022/02/27 02:29:49;;;;;;;16.77;9.60;;;;;;;4.35;75.77;95194.75;5072102;28;20436;-84
2022/02/27 02:32:16;;;;;;;14.60;9.73;;;;;;;4.17;76.31;95187.97;5072097;28;20457;-85
2022/02/27 02:34:45;;;;;;;15.13;11.07;;;;;;;4.08;77.41;95183.28;5072010;28;20533;-85
2022/02/27 02:37:13;;;;;;;21.93;12.90;;;;;;;4.26;77.12;95207.38;5071898;28;20555;-84
2022/02/27 02:39:40;;;;;;;17.90;12.53;;;;;;;4.30;77.09;95234.84;5073199;28;20436;-83
2022/02/27 02:42:07;;;;;;;16.57;10.73;;;;;;;4.24;77.11;95243.84;5075327;28;20472;-86
2022/02/27 02:44:34;;;;;;;20.80;12.07;;;;;;;4.17;77.50;95254.66;5075212;28;20939;-83
2022/02/27 02:47:01;;;;;;;21.27;12.80;;;;;;;4.31;76.95;95271.13;5075102;28;20535;-84
2022/02/27 02:49:28;;;;;;;16.80;12.73;;;;;;;4.41;77.27;95281.91;5074905;28;20544;-83
2022/02/27 02:51:56;;;;;;;20.07;12.20;;;;;;;4.46;76.79;95286.84;5074849;28;20459;-83
2022/02/27 02:54:25;;;;;;;22.40;12.90;;;;;;;4.43;77.05;95282.66;5074892;28;20443;-84
2022/02/27 02:56:52;;;;;;;22.80;14.73;;;;;;;4.58;76.00;95283.56;5072678;28;20449;-84
2022/02/27 02:59:23;;;;;;;21.70;15.23;;;;;;;4.69;76.18;95281.22;5074614;28;20447;-84
2022/02/27 03:01:50;;;;;;;20.90;13.37;;;;;;;4.62;76.06;95274.66;5072560;28;20496;-84
2022/02/27 03:04:17;;;;;;;24.83;13.80;;;;;;;4.69;75.83;95263.03;5074790;28;20797;-84
2022/02/27 03:06:44;;;;;;;20.93;12.40;;;;;;;4.49;76.46;95271.06;5074800;28;20452;-84
2022/02/27 03:09:12;;;;;;;22.10;14.63;;;;;;;4.43;77.00;95267.06;5074677;28;20453;-84
2022/02/27 03:11:40;;;;;;;20.80;14.43;;;;;;;4.52;77.47;95278.69;5074457;28;20449;-84
2022/02/27 03:14:07;;;;;;;16.20;8.90;;;;;;;4.35;77.81;95275.28;5074626;28;20966;-83
2022/02/27 03:16:34;;;;;;;19.20;12.27;;;;;;;4.32;77.62;95285.81;5074581;28;20450;-84
2022/02/27 03:19:01;;;;;;;27.63;13.50;;;;;;;4.21;79.08;95295.94;5074417;28;20476;-87
2022/02/27 03:21:28;;;;;;;20.40;13.73;;;;;;;4.35;78.65;95298.66;5074313;28;20838;-84
2022/02/27 03:23:55;;;;;;;31.53;15.37;;;;;;;4.36;78.31;95302.09;5074544;28;20452;-84
2022/02/27 03:26:22;;;;;;;18.00;11.80;;;;;;;4.22;79.06;95305.41;5074340;28;20456;-83
2022/02/27 03:28:52;;;;;;;20.13;13.83;;;;;;;4.05;79.67;95295.09;5074366;28;20456;-83
2022/02/27 03:31:19;;;;;;;27.40;14.50;;;;;;;4.22;80.01;95289.81;5074452;28;20819;-85
2022/02/27 03:33:46;;;;;;;22.73;14.67;;;;;;;4.18;80.07;95288.31;5074418;28;20453;-85
2022/02/27 03:36:12;;;;;;;25.50;14.33;;;;;;;4.07;80.92;95285.47;5074594;28;20458;-86
2022/02/27 03:38:40;;;;;;;23.30;14.20;;;;;;;4.06;81.59;95291.59;5074115;28;20448;-85
2022/02/27 03:41:07;;;;;;;30.27;15.60;;;;;;;3.97;81.84;95289.44;5074375;28;20576;-85
2022/02/27 03:43:34;;;;;;;28.53;14.03;;;;;;;3.91;81.88;95285.44;5074117;28;20980;-85
2022/02/27 03:46:02;;;;;;;25.50;13.87;;;;;;;3.94;82.84;95280.06;5074405;28;20440;-84
2022/02/27 03:48:29;;;;;;;24.03;14.27;;;;;;;3.97;83.08;95266.09;5073952;28;20441;-85
2022/02/27 03:50:56;;;;;;;19.13;12.43;;;;;;;4.02;82.24;95264.06;5073558;28;20447;-85
2022/02/27 03:53:23;;;;;;;24.60;15.23;;;;;;;4.00;82.51;95274.53;5073890;28;20957;-86
2022/02/27 03:55:51;;;;;;;24.27;16.07;;;;;;;3.96;83.68;95270.44;5073718;28;20443;-84
2022/02/27 03:58:18;;;;;;;25.07;16.23;;;;;;;4.02;83.23;95271.88;5074050;28;20456;-84
2022/02/27 04:00:45;;;;;;;22.00;14.50;;;;;;;4.02;83.42;95266.69;5073518;28;20462;-87
2022/02/27 04:03:13;;;;;;;23.13;14.93;;;;;;;3.94;83.96;95258.47;5073899;28;20449;-84
2022/02/27 04:05:40;;;;;;;20.27;12.73;;;;;;;3.89;85.14;95255.28;5073639;28;20466;-84
2022/02/27 04:08:08;;;;;;;22.10;12.83;;;;;;;3.89;85.17;95260.47;5073603;28;20456;-82
2022/02/27 04:10:35;;;;;;;24.57;16.03;;;;;;;3.93;85.25;95261.97;5073595;28;20539;-83
2022/02/27 04:13:02;;;;;;;25.80;13.37;;;;;;;3.82;86.02;95259.97;5073433;28;20480;-91
2022/02/27 04:15:29;;;;;;;22.27;13.97;;;;;;;3.72;86.33;95266.53;5073656;28;20437;-85
2022/02/27 04:17:56;;;;;;;22.07;11.37;;;;;;;3.67;86.99;95271.97;5073604;28;20506;-84
2022/02/27 04:20:24;;;;;;;19.93;12.33;;;;;;;3.65;87.89;95283.34;5073474;28;20483;-84
2022/02/27 04:22:51;;;;;;;27.10;16.77;;;;;;;3.65;87.63;95273.78;5073209;28;20998;-84
2022/02/27 04:25:18;;;;;;;22.90;14.60;;;;;;;3.77;87.20;95281.88;5074087;28;20449;-83
2022/02/27 04:27:45;;;;;;;26.93;16.00;;;;;;;3.70;87.81;95279.59;5073097;28;20445;-84
2022/02/27 04:30:13;;;;;;;23.00;15.03;;;;;;;3.73;87.57;95281.19;5073177;28;20449;-84
2022/02/27 04:32:40;;;;;;;21.30;13.87;;;;;;;3.72;88.12;95290.72;5073912;28;20520;-84
2022/02/27 04:35:08;;;;;;;23.37;14.33;;;;;;;3.69;87.78;95290.03;5073750;28;20450;-84
2022/02/27 04:37:37;;;;;;;14.20;9.90;;;;;;;3.67;87.88;95295.31;5073232;28;20444;-84
2022/02/27 04:40:05;;;;;;;24.10;12.70;;;;;;;3.71;87.70;95298.59;5072922;28;20453;-84
2022/02/27 04:42:32;;;;;;;24.03;14.70;;;;;;;3.77;87.75;95292.28;5073028;28;20487;-84
2022/02/27 04:44:59;;;;;;;27.03;15.47;;;;;;;3.75;87.72;95284.53;5072827;28;20451;-83
2022/02/27 04:47:26;;;;;;;22.40;14.70;;;;;;;3.69;88.32;95280.50;5073032;28;20433;-84
2022/02/27 04:49:54;;;;;;;25.13;15.07;;;;;;;3.69;88.61;95296.06;5072581;28;20440;-86
2022/02/27 04:52:21;;;;;;;26.97;15.90;;;;;;;3.69;89.49;95284.84;5072905;28;20425;-84
2022/02/27 04:54:49;;;;;;;24.97;15.43;;;;;;;3.59;90.54;95273.28;5072809;28;20447;-84
2022/02/27 04:57:16;;;;;;;27.70;16.40;;;;;;;3.68;90.80;95273.63;5072585;28;20466;-84
2022/02/27 04:59:44;;;;;;;28.63;17.17;;;;;;;3.69;91.74;95270.13;5073054;28;20447;-86
2022/02/27 05:02:10;;;;;;;30.90;15.10;;;;;;;3.53;93.59;95271.00;5071971;28;20482;-86
2022/02/27 05:04:37;;;;;;;26.47;15.70;;;;;;;3.48;95.22;95271.25;5072547;28;20451;-85
2022/02/27 05:07:05;;;;;;;26.07;17.90;;;;;;;3.44;96.89;95264.50;5072719;28;20446;-84
2022/02/27 05:09:32;;;;;;;24.33;15.17;;;;;;;3.29;99.06;95268.75;5072715;28;20502;-85
2022/02/27 05:12:00;;;;;;;28.93;18.30;;;;;;;3.34;100.00;95274.53;5072772;28;20445;-84
2022/02/27 05:14:28;;;;;;;30.60;17.23;;;;;;;3.19;100.00;95270.13;5072799;28;20516;-89
2022/02/27 05:16:54;;;;;;;30.33;18.20;;;;;;;3.01;100.00;95279.63;5072319;28;20901;-84
2022/02/27 05:19:21;;;;;;;34.77;20.43;;;;;;;3.05;100.00;95273.38;5072478;28;20480;-84
2022/02/27 05:21:48;;;;;;;33.03;19.43;;;;;;;3.04;100.00;95282.06;5072454;28;20475;-85
2022/02/27 05:24:15;;;;;;;29.23;18.20;;;;;;;3.00;100.00;95288.34;5072474;28;20465;-85
2022/02/27 05:26:42;;;;;;;29.13;17.27;;;;;;;2.86;100.00;95285.56;5072233;28;20535;-85
2022/02/27 05:29:11;;;;;;;37.63;21.90;;;;;;;2.92;100.00;95293.06;5072227;28;20444;-85
2022/02/27 05:31:39;;;;;;;45.87;28.03;;;;;;;2.75;100.00;95285.25;5072710;28;20608;-86
2022/02/27 05:34:06;;;;;;;32.40;20.60;;;;;;;2.94;100.00;95304.19;5072640;28;20500;-86
2022/02/27 05:36:33;;;;;;;34.10;21.33;;;;;;;2.76;100.00;95290.34;5072421;28;20252;-85
2022/02/27 05:39:01;;;;;;;24.58;17.33;;;;;;;2.82;100.00;95283.19;5072398;28;20206;-86
2022/02/27 05:41:28;;;;;;;32.80;20.58;;;;;;;2.83;100.00;95279.69;5072188;28;20204;-86
2022/02/27 05:43:55;;;;;;;28.80;16.80;;;;;;;2.79;100.00;95279.00;5072243;28;20217;-85
2022/02/27 05:46:23;;;;;;;26.77;18.23;;;;;;;2.59;100.00;95285.13;5072202;28;20475;-84
2022/02/27 05:48:50;;;;;;;31.33;19.15;;;;;;;2.67;100.00;95282.19;5071833;28;20206;-83
2022/02/27 05:51:17;;;;;;;30.45;19.45;;;;;;;2.67;100.00;95271.81;5071992;28;20203;-85
2022/02/27 05:53:44;;;;;;;37.10;21.07;;;;;;;2.70;100.00;95271.69;5071166;28;20203;-85
2022/02/27 05:56:12;;;;;;;26.60;18.80;;;;;;;2.70;100.00;95285.47;5071999;28;20447;-83
2022/02/27 05:58:39;;;;;;;31.00;18.95;;;;;;;2.75;100.00;95278.31;5072417;28;20533;-83
2022/02/27 06:01:06;;;;;;;30.08;19.67;;;;;;;2.78;100.00;95283.34;5071838;28;20209;-82
2022/02/27 06:03:35;;;;;;;36.37;21.20;;;;;;;2.71;100.00;95296.69;5071907;28;20265;-83
2022/02/27 06:06:02;;;;;;;37.20;21.25;;;;;;;2.82;100.00;95291.81;5036344;28;20526;-84
2022/02/27 06:08:30;;;;;;;35.57;20.77;;;;;;;2.89;100.00;95285.44;5072585;28;20302;-83
2022/02/27 06:10:57;;;;;;;35.00;22.27;;;;;;;3.01;100.00;95296.94;5071905;28;20911;-84
2022/02/27 06:13:24;;;;;;;38.72;23.23;;;;;;;2.94;100.00;95311.13;5072453;28;20710;-85
2022/02/27 06:15:51;;;;;;;36.70;21.27;;;;;;;2.82;100.00;95322.91;5076855;28;20210;-89
2022/02/27 06:18:18;;;;;;;31.43;21.50;;;;;;;2.88;100.00;95317.41;5077162;28;20454;-86
2022/02/27 06:20:46;;;;;;;29.42;20.25;;;;;;;2.85;100.00;95316.72;5077263;28;20448;-88
2022/02/27 06:23:13;;;;;;;30.83;20.73;;;;;;;2.85;100.00;95312.38;5076395;28;20341;-88
2022/02/27 06:25:40;;;;;;;28.10;17.67;;;;;;;2.76;100.00;95315.44;5058125;28;20459;-87
2022/02/27 06:28:07;;;;;;;31.97;19.23;;;;;;;2.90;100.00;95312.19;5076401;28;20445;-84
2022/02/27 06:30:34;;;;;;;33.67;18.63;;;;;;;2.65;100.00;95304.75;5075949;28;20464;-88
2022/02/27 06:33:01;;;;;;;24.00;14.63;;;;;;;3.59;100.00;95314.78;5076733;28;20455;-84
2022/02/27 06:35:28;;;;;;;31.77;19.80;;;;;;;3.18;100.00;95309.06;5079172;28;20453;-83
2022/02/27 06:37:56;;;;;;;27.90;17.70;;;;;;;3.13;100.00;95311.88;5082292;28;20454;-86
2022/02/27 06:40:23;;;;;;;34.03;18.30;;;;;;;2.79;100.00;95312.69;5078738;28;20441;-86
2022/02/27 06:42:50;;;;;;;33.08;19.38;;;;;;;2.89;100.00;95290.63;5077272;28;20560;-87
2022/02/27 06:45:18;;;;;;;24.10;16.50;;;;;;;2.90;100.00;95300.06;5077123;28;20190;-89
2022/02/27 06:47:45;;;;;;;29.75;18.30;;;;;;;2.88;100.00;95306.22;5077350;28;20471;-88
2022/02/27 06:50:14;;;;;;;27.33;18.37;;;;;;;2.89;100.00;95303.56;5077027;28;20289;-87
2022/02/27 06:52:41;;;;;;;36.20;19.93;;;;;;;2.75;100.00;95293.84;5042187;28;20457;-88
2022/02/27 06:55:15;;;;;;;34.07;20.03;;;;;;;4.12;100.00;95316.38;5077169;28;20464;-93
2022/02/27 06:57:43;;;;;;;30.90;17.73;;;;;;;3.58;100.00;95311.38;5077570;28;20985;-93
2022/02/27 07:00:11;;;;;;;26.47;17.00;;;;;;;3.34;100.00;95322.97;5077394;28;20506;-93
2022/02/27 07:02:39;;;;;;;32.67;19.03;;;;;;;3.25;100.00;95311.31;5077546;28;20475;-93
2022/02/27 07:05:07;;;;;;;30.53;18.83;;;;;;;3.07;100.00;95301.81;5077310;28;20444;-92
2022/02/27 07:07:34;;;;;;;26.07;17.07;;;;;;;3.13;100.00;95311.06;5077873;28;20452;-92
2022/02/27 07:10:03;;;;;;;32.20;16.40;;;;;;;2.82;100.00;95322.06;5077606;28;20524;-94
2022/02/27 07:12:33;;;;;;;28.00;17.27;;;;;;;2.63;100.00;95298.78;5078233;28;20461;-93
2022/02/27 07:15:01;;;;;;;28.57;17.40;;;;;;;2.63;100.00;95310.00;5077711;28;20445;-90
2022/02/27 07:17:28;;;;;;;24.17;14.70;;;;;;;2.49;100.00;95295.09;5077409;28;20893;-92
2022/02/27 07:19:55;;;;;;;26.20;17.67;;;;;;;2.53;100.00;95310.47;5077337;28;20456;-92
2022/02/27 07:22:23;;;;;;;25.58;17.80;;;;;;;2.56;100.00;95307.75;5077078;28;20482;-92
2022/02/27 07:24:50;;;;;;;26.83;16.58;;;;;;;2.59;100.00;95307.59;5075330;28;20289;-93
2022/02/27 07:27:17;;;;;;;31.15;16.65;;;;;;;2.56;100.00;95315.50;5077084;28;20219;-91
2022/02/27 07:29:45;;;;;;;28.63;16.50;;;;;;;2.69;100.00;95317.47;5076537;28;20207;-91
2022/02/27 07:32:14;;;;;;;26.02;16.73;;;;;;;2.61;100.00;95308.41;5076211;28;20462;-91
2022/02/27 07:34:41;;;;;;;24.77;17.55;;;;;;;2.63;100.00;95309.16;5076875;28;20221;-92
2022/02/27 07:37:09;;;;;;;17.88;13.85;;;;;;;2.57;100.00;95304.25;5075456;28;20208;-91
2022/02/27 07:39:36;;;;;;;26.85;18.38;;;;;;;2.58;100.00;95301.56;5075452;28;20297;-90
2022/02/27 07:42:03;;;;;;;24.43;14.50;;;;;;;2.46;100.00;95305.59;5075957;28;20208;-90
2022/02/27 07:44:30;;;;;;;26.65;17.33;;;;;;;2.57;100.00;95305.06;5075634;28;20482;-90
2022/02/27 07:46:59;;;;;;;29.67;20.10;;;;;;;2.65;100.00;95307.34;5076135;28;20236;-92
2022/02/27 07:49:26;;;;;;;28.23;20.97;;;;;;;2.73;100.00;95303.47;5076201;28;20487;-93
2022/02/27 07:51:53;;;;;;;35.40;24.70;;;;;;;2.81;100.00;95303.09;5076410;28;20452;-91
2022/02/27 07:54:20;;;;;;;34.63;23.60;;;;;;;2.71;100.00;95304.44;5076451;28;20216;-90
2022/02/27 07:56:47;;;;;;;26.20;16.58;;;;;;;2.55;100.00;95295.72;5076605;28;20512;-92
2022/02/27 07:59:14;;;;;;;22.97;15.90;;;;;;;2.49;100.00;95283.88;5076900;28;20208;-91
2022/02/27 08:01:42;;;;;;;27.00;16.98;;;;;;;2.48;100.00;95280.47;5076493;28;20532;-91
2022/02/27 08:04:10;;;;;;;23.13;16.65;;;;;;;2.72;100.00;95300.94;5075481;28;20321;-90
2022/02/27 08:06:37;;;;;;;36.90;26.73;;;;;;;2.90;100.00;95314.78;5075835;28;20213;-89
2022/02/27 08:09:05;;;;;;;33.13;21.45;;;;;;;3.06;100.00;95313.09;5075652;28;20209;-91
2022/02/27 08:11:32;;;;;;;34.93;21.40;;;;;;;3.12;100.00;95312.81;5076663;28;20212;-89
2022/02/27 08:14:00;;;;;;;40.07;31.20;;;;;;;3.07;100.00;95326.00;5075745;28;20457;-92
2022/02/27 08:16:27;;;;;;;28.20;21.23;;;;;;;2.87;100.00;95314.91;5075832;28;20451;-92
2022/02/27 08:18:55;;;;;;;26.50;18.40;;;;;;;2.86;100.00;95323.59;5074512;28;20574;-84
2022/02/27 08:21:23;;;;;;;23.25;16.05;;;;;;;2.84;100.00;95320.22;5074440;28;20452;-88
2022/02/27 08:23:51;;;;;;;30.37;17.03;;;;;;;2.90;100.00;95323.41;5075775;28;20233;-88
2022/02/27 08:26:18;;;;;;;37.70;21.57;;;;;;;3.06;100.00;95321.72;5075324;28;20455;-87
2022/02/27 08:28:45;;;;;;;36.47;21.38;;;;;;;3.22;100.00;95321.84;5074223;28;21027;-87
2022/02/27 08:31:14;;;;;;;20.45;14.23;;;;;;;3.20;100.00;95312.44;5075213;28;20214;-87
2022/02/27 08:33:41;;;;;;;22.77;16.20;;;;;;;3.06;100.00;95297.56;5075451;28;20205;-88
2022/02/27 08:36:09;;;;;;;23.20;15.10;;;;;;;3.25;100.00;95300.94;5074907;28;20530;-89
2022/02/27 08:38:37;;;;;;;24.02;14.32;;;;;;;3.26;100.00;95296.59;5075141;28;20341;-86
2022/02/27 08:41:05;;;;;;;23.37;15.43;;;;;;;3.25;100.00;95294.91;5076088;28;20206;-89
2022/02/27 08:43:32;;;;;;;19.70;13.68;;;;;;;3.22;100.00;95289.88;5075463;28;20484;-89
2022/02/27 08:46:00;;;;;;;22.77;16.03;;;;;;;3.34;100.00;95284.06;5078553;28;20187;-90
2022/02/27 08:48:28;;;;;;;30.80;20.00;;;;;;;3.21;100.00;95293.38;5077064;28;20460;-90
2022/02/27 08:50:55;;;;;;;25.37;18.40;;;;;;;3.15;100.00;95304.03;5074917;28;20484;-89
2022/02/27 08:53:23;;;;;;;23.43;16.27;;;;;;;3.17;100.00;95297.84;5075352;28;20970;-91
2022/02/27 08:55:53;;;;;;;19.30;13.98;;;;;;;2.86;100.00;95293.34;5075747;28;20452;-88
2022/02/27 08:58:20;;;;;;;15.43;12.97;;;;;;;3.03;100.00;95303.72;5074704;28;20214;-87
2022/02/27 09:00:47;;;;;;;21.48;17.70;;;;;;;3.05;100.00;95296.72;5071873;28;20457;-83
2022/02/27 09:07:00;;;;;;;25.60;18.83;;;;;;;3.28;100.00;95299.94;5053772;28;20462;-85
2022/02/27 09:09:27;;;;;;;18.90;14.67;;;;;;;3.25;100.00;95298.34;5053863;28;20454;-83
2022/02/27 09:11:57;;;;;;;15.47;13.03;;;;;;;3.23;100.00;95301.91;5066477;28;20451;-85
2022/02/27 09:14:27;;;;;;;22.87;17.23;;;;;;;3.16;100.00;95290.16;5073574;28;20448;-83
2022/02/27 09:16:54;;;;;;;15.80;12.73;;;;;;;3.32;100.00;95298.88;5073597;28;20915;-86
2022/02/27 09:19:21;;;;;;;21.93;16.07;;;;;;;3.21;100.00;95291.63;5073120;28;20470;-84
2022/02/27 09:21:48;;;;;;;17.40;14.10;;;;;;;3.29;100.00;95278.28;5073225;28;20434;-85
2022/02/27 09:24:15;;;;;;;19.90;15.30;;;;;;;3.26;100.00;95286.22;5073686;28;20502;-89
2022/02/27 09:26:43;;;;;;;13.50;11.63;;;;;;;3.10;100.00;95283.53;5072814;28;20952;-84
2022/02/27 09:29:11;;;;;;;33.63;21.87;;;;;;;3.19;100.00;95282.25;5073502;28;20965;-84
2022/02/27 09:31:38;;;;;;;16.80;14.23;;;;;;;3.17;100.00;95277.13;5073523;28;20457;-85
2022/02/27 09:34:05;;;;;;;12.23;10.40;;;;;;;3.02;100.00;95277.88;5073366;28;21338;-85
2022/02/27 09:36:32;;;;;;;17.33;11.00;;;;;;;2.99;100.00;95276.28;5073392;28;20465;-85
2022/02/27 09:38:59;;;;;;;16.07;14.17;;;;;;;3.23;100.00;95273.41;5073693;28;20559;-84
2022/02/27 09:41:27;;;;;;;15.50;10.30;;;;;;;3.20;100.00;95273.56;5073155;28;20438;-84
2022/02/27 09:43:56;;;;;;;64.10;40.43;;;;;;;3.23;100.00;95276.84;5072924;28;20484;-84
2022/02/27 09:46:26;;;;;;;29.47;19.50;;;;;;;3.39;100.00;95274.28;5073929;28;20839;-84
2022/02/27 09:48:54;;;;;;;18.20;14.87;;;;;;;3.46;100.00;95280.84;5076222;28;20838;-85
2022/02/27 09:51:23;;;;;;;56.33;42.10;;;;;;;3.64;100.00;95282.50;5077664;28;20446;-84
2022/02/27 09:53:50;;;;;;;20.27;14.90;;;;;;;3.65;100.00;95291.97;5078079;28;20554;-85
2022/02/27 09:56:17;;;;;;;28.40;19.50;;;;;;;3.48;100.00;95283.38;5077357;28;20453;-85
2022/02/27 09:58:44;;;;;;;18.60;15.20;;;;;;;3.29;100.00;95283.47;5077315;28;20441;-83
2022/02/27 10:01:14;;;;;;;14.87;11.77;;;;;;;3.04;100.00;95276.06;5077261;28;20197;-85
2022/02/27 10:03:42;;;;;;;16.43;13.73;;;;;;;3.10;100.00;95276.59;5077241;28;20553;-82
2022/02/27 10:06:11;;;;;;;21.33;13.20;;;;;;;3.17;100.00;95265.91;5054486;28;20450;-85
2022/02/27 10:08:40;;;;;;;23.03;18.13;;;;;;;3.24;100.00;95257.75;5057420;28;20803;-83
2022/02/27 10:11:08;;;;;;;16.53;10.70;;;;;;;3.30;100.00;95270.41;5057837;28;20464;-88
2022/02/27 10:13:37;;;;;;;15.90;12.03;;;;;;;3.40;100.00;95261.25;5058194;28;20483;-87
2022/02/27 10:16:08;;;;;;;22.67;18.52;;;;;;;3.60;100.00;95255.03;5057213;28;20459;-84
2022/02/27 10:18:40;;;;;;;18.93;13.83;;;;;;;3.61;100.00;95256.72;5038388;28;20231;-85
2022/02/27 10:21:23;;;;;;;19.40;12.80;;;;;;;3.70;100.00;95255.38;5057148;28;20429;-84
2022/02/27 10:24:00;;;;;;;10.97;9.80;;;;;;;3.83;100.00;95255.59;5058839;28;20520;-87
2022/02/27 10:26:46;;;;;;;17.23;12.90;;;;;;;3.60;100.00;95265.41;5062350;28;20475;-82
2022/02/27 10:29:15;;;;;;;10.03;8.97;;;;;;;3.67;100.00;95268.53;5076591;28;20444;-83
2022/02/27 10:31:44;;;;;;;13.43;12.10;;;;;;;3.74;100.00;95264.69;5076409;28;20916;-83
2022/02/27 10:34:16;;;;;;;18.27;14.67;;;;;;;3.76;100.00;95259.41;5076568;28;20454;-84
2022/02/27 10:36:58;;;;;;;8.57;7.77;;;;;;;3.79;100.00;95254.09;5077422;28;20458;-84
2022/02/27 10:39:34;;;;;;;9.70;8.67;;;;;;;3.79;100.00;95248.91;5076581;28;20431;-84
2022/02/27 10:45:23;;;;;;;13.10;9.40;;;;;;;3.74;100.00;95242.16;5075244;28;20457;-83
2022/02/27 10:47:53;;;;;;;11.30;9.37;;;;;;;3.81;100.00;95241.88;5076405;28;20442;-83
2022/02/27 10:50:20;;;;;;;12.47;8.87;;;;;;;3.55;100.00;95225.91;5058497;28;20448;-83
2022/02/27 10:52:49;;;;;;;18.43;12.10;;;;;;;3.79;100.00;95238.53;5076470;28;20443;-82
2022/02/27 10:58:45;;;;;;;7.30;6.60;;;;;;;3.69;100.00;95241.56;5076193;28;20491;-84
2022/02/27 11:01:18;;;;;;;9.33;8.40;;;;;;;3.59;100.00;95239.56;5075017;28;20442;-83
2022/02/27 11:03:47;;;;;;;13.02;11.60;;;;;;;3.66;100.00;95246.94;5076359;28;20524;-83
2022/02/27 11:06:15;;;;;;;9.93;7.47;;;;;;;3.80;100.00;95242.78;5075773;28;20660;-84
2022/02/27 11:08:44;;;;;;;9.50;7.67;;;;;;;3.88;100.00;95227.66;5076452;28;20440;-84
2022/02/27 11:11:12;;;;;;;11.80;8.43;;;;;;;3.94;100.00;95232.50;5077119;28;20436;-85
2022/02/27 11:13:40;;;;;;;14.50;11.07;;;;;;;3.90;100.00;95229.22;5076663;28;20445;-82
2022/02/27 11:16:08;;;;;;;18.23;11.50;;;;;;;3.84;100.00;95226.13;5076043;28;20440;-83
2022/02/27 11:18:36;;;;;;;17.13;12.07;;;;;;;3.71;100.00;95226.75;5075699;28;20484;-84
2022/02/27 11:21:03;;;;;;;14.40;9.83;;;;;;;3.53;100.00;95222.56;5075559;28;20937;-84
2022/02/27 11:23:30;;;;;;;11.37;9.73;;;;;;;3.57;100.00;95233.59;5075688;28;20480;-85
2022/02/27 11:26:01;;;;;;;10.70;9.60;;;;;;;3.46;100.00;95223.78;5079407;28;20430;-84
2022/02/27 11:28:28;;;;;;;11.00;8.43;;;;;;;3.55;100.00;95215.53;5075905;28;20919;-85
2022/02/27 11:31:01;;;;;;;13.80;10.67;;;;;;;3.29;100.00;95206.50;5075692;28;20553;-85
2022/02/27 11:43:43;;;;;;;11.03;9.50;;;;;;;3.30;100.00;95208.19;5054724;28;20953;-81
2022/02/27 11:46:12;;;;;;;11.03;9.63;;;;;;;3.18;100.00;95197.56;5056897;28;20547;-83